sensor_id;sensor_type;location;lat;lon;timestamp;P1;durP1;ratioP1;P2;durP2;ratioP2
20657;SDS011;10488;50.846;4.078;2022-10-01T00:00:59;7.53;;;6.45;;
20657;SDS011;10488;50.846;4.078;2022-10-01T00:03:26;10.82;;;6.03;;
20657;SDS011;10488;50.846;4.078;2022-10-01T00:08:30;6.88;;;6.15;;
20657;SDS011;10488;50.846;4.078;2022-10-01T00:10:58;7.40;;;5.70;;
20657;SDS011;10488;50.846;4.078;2022-10-01T00:13:25;7.95;;;5.88;;
20657;SDS011;10488;50.846;4.078;2022-10-01T00:15:52;8.95;;;5.97;;
20657;SDS011;10488;50.846;4.078;2022-10-01T00:18:17;8.88;;;6.40;;
20657;SDS011;10488;50.846;4.078;2022-10-01T00:20:43;5.93;;;5.32;;
20657;SDS011;10488;50.846;4.078;2022-10-01T00:23:09;7.75;;;6.32;;
20657;SDS011;10488;50.846;4.078;2022-10-01T00:25:36;8.35;;;5.57;;
20657;SDS011;10488;50.846;4.078;2022-10-01T00:28:01;9.88;;;6.00;;
20657;SDS011;10488;50.846;4.078;2022-10-01T00:30:27;7.82;;;6.40;;
20657;SDS011;10488;50.846;4.078;2022-10-01T00:32:54;7.75;;;5.72;;
20657;SDS011;10488;50.846;4.078;2022-10-01T00:35:20;7.03;;;5.70;;
20657;SDS011;10488;50.846;4.078;2022-10-01T00:37:47;6.45;;;4.95;;
20657;SDS011;10488;50.846;4.078;2022-10-01T00:40:16;7.13;;;5.25;;
20657;SDS011;10488;50.846;4.078;2022-10-01T00:42:45;7.97;;;5.38;;
20657;SDS011;10488;50.846;4.078;2022-10-01T00:45:11;6.35;;;5.72;;
20657;SDS011;10488;50.846;4.078;2022-10-01T00:47:44;6.88;;;5.13;;
20657;SDS011;10488;50.846;4.078;2022-10-01T00:50:27;5.78;;;4.65;;
20657;SDS011;10488;50.846;4.078;2022-10-01T00:52:57;9.85;;;4.93;;
20657;SDS011;10488;50.846;4.078;2022-10-01T00:55:31;4.75;;;4.25;;
20657;SDS011;10488;50.846;4.078;2022-10-01T00:58:02;4.30;;;3.80;;
20657;SDS011;10488;50.846;4.078;2022-10-01T01:00:29;5.82;;;4.05;;
20657;SDS011;10488;50.846;4.078;2022-10-01T01:02:55;7.85;;;3.55;;
20657;SDS011;10488;50.846;4.078;2022-10-01T01:05:21;4.63;;;3.33;;
20657;SDS011;10488;50.846;4.078;2022-10-01T01:07:48;6.57;;;3.78;;
20657;SDS011;10488;50.846;4.078;2022-10-01T01:10:41;5.35;;;3.22;;
20657;SDS011;10488;50.846;4.078;2022-10-01T01:13:31;5.85;;;3.38;;
20657;SDS011;10488;50.846;4.078;2022-10-01T01:24:10;8.07;;;3.60;;
20657;SDS011;10488;50.846;4.078;2022-10-01T01:32:57;3.10;;;2.80;;
20657;SDS011;10488;50.846;4.078;2022-10-01T01:35:16;3.08;;;2.75;;
20657;SDS011;10488;50.846;4.078;2022-10-01T01:37:50;3.67;;;2.90;;
20657;SDS011;10488;50.846;4.078;2022-10-01T01:40:19;2.50;;;2.30;;
20657;SDS011;10488;50.846;4.078;2022-10-01T01:42:46;3.05;;;2.45;;
20657;SDS011;10488;50.846;4.078;2022-10-01T01:45:15;4.47;;;2.20;;
20657;SDS011;10488;50.846;4.078;2022-10-01T01:47:45;3.88;;;2.70;;
20657;SDS011;10488;50.846;4.078;2022-10-01T01:50:11;3.53;;;3.33;;
20657;SDS011;10488;50.846;4.078;2022-10-01T01:52:39;3.17;;;2.80;;
20657;SDS011;10488;50.846;4.078;2022-10-01T01:55:05;4.97;;;3.25;;
20657;SDS011;10488;50.846;4.078;2022-10-01T01:57:35;5.57;;;3.15;;
20657;SDS011;10488;50.846;4.078;2022-10-01T02:00:04;3.00;;;2.70;;
20657;SDS011;10488;50.846;4.078;2022-10-01T02:02:32;2.90;;;2.70;;
20657;SDS011;10488;50.846;4.078;2022-10-01T02:05:07;3.83;;;2.22;;
20657;SDS011;10488;50.846;4.078;2022-10-01T02:07:49;3.70;;;2.53;;
20657;SDS011;10488;50.846;4.078;2022-10-01T02:13:04;2.90;;;2.60;;
20657;SDS011;10488;50.846;4.078;2022-10-01T02:16:20;2.55;;;2.17;;
20657;SDS011;10488;50.846;4.078;2022-10-01T02:27:14;4.32;;;1.60;;
20657;SDS011;10488;50.846;4.078;2022-10-01T02:29:49;2.05;;;1.77;;
20657;SDS011;10488;50.846;4.078;2022-10-01T02:32:17;2.97;;;1.95;;
20657;SDS011;10488;50.846;4.078;2022-10-01T02:34:44;2.33;;;2.13;;
20657;SDS011;10488;50.846;4.078;2022-10-01T02:37:11;2.25;;;2.05;;
20657;SDS011;10488;50.846;4.078;2022-10-01T02:39:37;3.78;;;2.55;;
20657;SDS011;10488;50.846;4.078;2022-10-01T02:42:09;3.97;;;2.60;;
20657;SDS011;10488;50.846;4.078;2022-10-01T02:44:40;4.55;;;3.63;;
20657;SDS011;10488;50.846;4.078;2022-10-01T02:49:59;3.80;;;2.78;;
20657;SDS011;10488;50.846;4.078;2022-10-01T02:52:45;3.92;;;3.53;;
20657;SDS011;10488;50.846;4.078;2022-10-01T02:55:17;5.35;;;3.40;;
20657;SDS011;10488;50.846;4.078;2022-10-01T02:57:48;5.03;;;3.40;;
20657;SDS011;10488;50.846;4.078;2022-10-01T03:00:15;3.65;;;3.35;;
20657;SDS011;10488;50.846;4.078;2022-10-01T03:02:45;4.53;;;3.03;;
20657;SDS011;10488;50.846;4.078;2022-10-01T03:05:12;3.40;;;3.10;;
20657;SDS011;10488;50.846;4.078;2022-10-01T03:07:39;3.40;;;3.10;;
20657;SDS011;10488;50.846;4.078;2022-10-01T03:10:05;5.72;;;3.58;;
20657;SDS011;10488;50.846;4.078;2022-10-01T03:12:32;3.67;;;3.38;;
20657;SDS011;10488;50.846;4.078;2022-10-01T03:14:58;4.93;;;3.28;;
20657;SDS011;10488;50.846;4.078;2022-10-01T03:17:23;3.92;;;3.42;;
20657;SDS011;10488;50.846;4.078;2022-10-01T03:19:49;4.22;;;3.10;;
20657;SDS011;10488;50.846;4.078;2022-10-01T03:22:15;3.40;;;2.75;;
20657;SDS011;10488;50.846;4.078;2022-10-01T03:24:43;3.35;;;2.50;;
20657;SDS011;10488;50.846;4.078;2022-10-01T03:27:09;4.40;;;2.72;;
20657;SDS011;10488;50.846;4.078;2022-10-01T03:29:35;3.83;;;2.60;;
20657;SDS011;10488;50.846;4.078;2022-10-01T03:32:00;4.50;;;2.67;;
20657;SDS011;10488;50.846;4.078;2022-10-01T03:34:26;3.30;;;2.65;;
20657;SDS011;10488;50.846;4.078;2022-10-01T03:36:53;2.78;;;2.30;;
20657;SDS011;10488;50.846;4.078;2022-10-01T03:39:18;4.30;;;2.35;;
20657;SDS011;10488;50.846;4.078;2022-10-01T03:41:44;2.50;;;2.30;;
20657;SDS011;10488;50.846;4.078;2022-10-01T03:44:11;2.00;;;1.90;;
20657;SDS011;10488;50.846;4.078;2022-10-01T03:46:38;2.40;;;2.20;;
20657;SDS011;10488;50.846;4.078;2022-10-01T03:49:03;2.10;;;2.00;;
20657;SDS011;10488;50.846;4.078;2022-10-01T03:51:29;2.30;;;2.08;;
20657;SDS011;10488;50.846;4.078;2022-10-01T03:53:56;2.05;;;1.85;;
20657;SDS011;10488;50.846;4.078;2022-10-01T03:56:23;1.83;;;1.73;;
20657;SDS011;10488;50.846;4.078;2022-10-01T03:58:49;2.72;;;1.85;;
20657;SDS011;10488;50.846;4.078;2022-10-01T04:01:15;2.70;;;1.70;;
20657;SDS011;10488;50.846;4.078;2022-10-01T04:03:43;1.80;;;1.70;;
20657;SDS011;10488;50.846;4.078;2022-10-01T04:06:08;1.65;;;1.55;;
20657;SDS011;10488;50.846;4.078;2022-10-01T04:08:34;3.80;;;1.67;;
20657;SDS011;10488;50.846;4.078;2022-10-01T04:11:01;3.45;;;1.60;;
20657;SDS011;10488;50.846;4.078;2022-10-01T04:13:26;2.25;;;1.58;;
20657;SDS011;10488;50.846;4.078;2022-10-01T04:15:54;2.53;;;1.60;;
20657;SDS011;10488;50.846;4.078;2022-10-01T04:18:20;2.35;;;1.60;;
20657;SDS011;10488;50.846;4.078;2022-10-01T04:20:47;2.67;;;1.60;;
20657;SDS011;10488;50.846;4.078;2022-10-01T04:23:14;3.63;;;1.70;;
20657;SDS011;10488;50.846;4.078;2022-10-01T04:25:40;1.60;;;1.40;;
20657;SDS011;10488;50.846;4.078;2022-10-01T04:28:06;1.70;;;1.50;;
20657;SDS011;10488;50.846;4.078;2022-10-01T04:30:36;2.15;;;1.83;;
20657;SDS011;10488;50.846;4.078;2022-10-01T04:33:04;2.17;;;1.77;;
20657;SDS011;10488;50.846;4.078;2022-10-01T04:35:30;4.15;;;2.13;;
20657;SDS011;10488;50.846;4.078;2022-10-01T04:40:23;3.08;;;1.70;;
20657;SDS011;10488;50.846;4.078;2022-10-01T04:42:50;1.95;;;1.77;;
20657;SDS011;10488;50.846;4.078;2022-10-01T04:45:16;3.30;;;1.95;;
20657;SDS011;10488;50.846;4.078;2022-10-01T04:47:51;3.78;;;1.88;;
20657;SDS011;10488;50.846;4.078;2022-10-01T04:50:19;3.50;;;1.98;;
20657;SDS011;10488;50.846;4.078;2022-10-01T04:52:47;2.47;;;1.95;;
20657;SDS011;10488;50.846;4.078;2022-10-01T04:55:13;4.55;;;1.88;;
20657;SDS011;10488;50.846;4.078;2022-10-01T04:57:41;2.60;;;1.70;;
20657;SDS011;10488;50.846;4.078;2022-10-01T05:00:08;4.63;;;1.88;;
20657;SDS011;10488;50.846;4.078;2022-10-01T05:02:36;2.67;;;2.30;;
20657;SDS011;10488;50.846;4.078;2022-10-01T05:05:03;4.30;;;2.03;;
20657;SDS011;10488;50.846;4.078;2022-10-01T05:07:31;2.88;;;2.28;;
20657;SDS011;10488;50.846;4.078;2022-10-01T05:09:59;1.80;;;1.70;;
20657;SDS011;10488;50.846;4.078;2022-10-01T05:12:26;2.45;;;2.03;;
20657;SDS011;10488;50.846;4.078;2022-10-01T05:14:54;2.58;;;2.00;;
20657;SDS011;10488;50.846;4.078;2022-10-01T05:17:21;6.28;;;2.60;;
20657;SDS011;10488;50.846;4.078;2022-10-01T05:19:47;3.60;;;1.88;;
20657;SDS011;10488;50.846;4.078;2022-10-01T05:22:14;5.13;;;2.08;;
20657;SDS011;10488;50.846;4.078;2022-10-01T05:24:40;3.17;;;2.25;;
20657;SDS011;10488;50.846;4.078;2022-10-01T05:27:08;9.13;;;2.60;;
20657;SDS011;10488;50.846;4.078;2022-10-01T05:29:37;2.78;;;2.15;;
20657;SDS011;10488;50.846;4.078;2022-10-01T05:32:06;6.38;;;2.80;;
20657;SDS011;10488;50.846;4.078;2022-10-01T05:34:32;3.38;;;2.65;;
20657;SDS011;10488;50.846;4.078;2022-10-01T05:36:59;5.28;;;2.90;;
20657;SDS011;10488;50.846;4.078;2022-10-01T05:39:26;3.67;;;1.98;;
20657;SDS011;10488;50.846;4.078;2022-10-01T05:41:52;3.00;;;2.40;;
20657;SDS011;10488;50.846;4.078;2022-10-01T05:44:21;4.18;;;2.42;;
20657;SDS011;10488;50.846;4.078;2022-10-01T05:46:47;3.25;;;2.53;;
20657;SDS011;10488;50.846;4.078;2022-10-01T05:49:13;5.75;;;2.60;;
20657;SDS011;10488;50.846;4.078;2022-10-01T05:51:41;3.33;;;2.88;;
20657;SDS011;10488;50.846;4.078;2022-10-01T05:54:11;8.95;;;2.90;;
20657;SDS011;10488;50.846;4.078;2022-10-01T05:56:38;5.22;;;3.25;;
20657;SDS011;10488;50.846;4.078;2022-10-01T05:59:04;4.07;;;3.20;;
20657;SDS011;10488;50.846;4.078;2022-10-01T06:01:30;4.72;;;3.45;;
20657;SDS011;10488;50.846;4.078;2022-10-01T06:03:56;7.40;;;3.75;;
20657;SDS011;10488;50.846;4.078;2022-10-01T06:06:25;6.60;;;4.50;;
20657;SDS011;10488;50.846;4.078;2022-10-01T06:08:52;8.95;;;5.03;;
20657;SDS011;10488;50.846;4.078;2022-10-01T06:11:18;9.50;;;4.45;;
20657;SDS011;10488;50.846;4.078;2022-10-01T06:13:46;12.13;;;6.05;;
20657;SDS011;10488;50.846;4.078;2022-10-01T06:16:12;10.02;;;6.63;;
20657;SDS011;10488;50.846;4.078;2022-10-01T06:18:39;12.57;;;7.22;;
20657;SDS011;10488;50.846;4.078;2022-10-01T06:21:05;10.18;;;8.48;;
20657;SDS011;10488;50.846;4.078;2022-10-01T06:23:31;14.23;;;9.30;;
20657;SDS011;10488;50.846;4.078;2022-10-01T06:26:00;22.98;;;9.85;;
20657;SDS011;10488;50.846;4.078;2022-10-01T06:28:26;15.57;;;9.65;;
20657;SDS011;10488;50.846;4.078;2022-10-01T06:30:52;17.60;;;10.05;;
20657;SDS011;10488;50.846;4.078;2022-10-01T06:33:18;13.50;;;9.07;;
20657;SDS011;10488;50.846;4.078;2022-10-01T06:35:44;12.98;;;9.75;;
20657;SDS011;10488;50.846;4.078;2022-10-01T06:38:12;16.63;;;9.20;;
20657;SDS011;10488;50.846;4.078;2022-10-01T06:40:38;13.98;;;7.88;;
20657;SDS011;10488;50.846;4.078;2022-10-01T06:43:04;11.45;;;7.97;;
20657;SDS011;10488;50.846;4.078;2022-10-01T06:45:34;15.40;;;8.77;;
20657;SDS011;10488;50.846;4.078;2022-10-01T06:48:02;14.95;;;8.55;;
20657;SDS011;10488;50.846;4.078;2022-10-01T06:50:32;11.02;;;8.43;;
20657;SDS011;10488;50.846;4.078;2022-10-01T06:52:59;16.95;;;8.02;;
20657;SDS011;10488;50.846;4.078;2022-10-01T06:55:29;14.70;;;7.97;;
20657;SDS011;10488;50.846;4.078;2022-10-01T06:57:58;18.17;;;8.00;;
20657;SDS011;10488;50.846;4.078;2022-10-01T07:00:25;16.33;;;7.40;;
20657;SDS011;10488;50.846;4.078;2022-10-01T07:02:52;20.27;;;7.60;;
20657;SDS011;10488;50.846;4.078;2022-10-01T07:05:19;11.77;;;5.72;;
20657;SDS011;10488;50.846;4.078;2022-10-01T07:07:46;10.23;;;5.40;;
20657;SDS011;10488;50.846;4.078;2022-10-01T07:10:13;16.52;;;4.78;;
20657;SDS011;10488;50.846;4.078;2022-10-01T07:12:39;11.75;;;4.80;;
20657;SDS011;10488;50.846;4.078;2022-10-01T07:15:06;14.63;;;3.92;;
20657;SDS011;10488;50.846;4.078;2022-10-01T07:17:33;8.15;;;3.28;;
20657;SDS011;10488;50.846;4.078;2022-10-01T07:20:06;9.85;;;2.95;;
20657;SDS011;10488;50.846;4.078;2022-10-01T07:22:33;11.43;;;2.55;;
20657;SDS011;10488;50.846;4.078;2022-10-01T07:24:59;12.38;;;2.45;;
20657;SDS011;10488;50.846;4.078;2022-10-01T07:27:24;15.45;;;2.92;;
20657;SDS011;10488;50.846;4.078;2022-10-01T07:29:50;16.48;;;3.05;;
20657;SDS011;10488;50.846;4.078;2022-10-01T07:32:19;13.88;;;3.00;;
20657;SDS011;10488;50.846;4.078;2022-10-01T07:34:45;8.63;;;2.30;;
20657;SDS011;10488;50.846;4.078;2022-10-01T07:37:10;11.02;;;2.50;;
20657;SDS011;10488;50.846;4.078;2022-10-01T07:39:36;10.77;;;2.47;;
20657;SDS011;10488;50.846;4.078;2022-10-01T07:42:02;15.77;;;3.05;;
20657;SDS011;10488;50.846;4.078;2022-10-01T07:44:28;16.13;;;2.60;;
20657;SDS011;10488;50.846;4.078;2022-10-01T07:46:55;8.77;;;2.25;;
20657;SDS011;10488;50.846;4.078;2022-10-01T07:49:22;14.90;;;2.95;;
20657;SDS011;10488;50.846;4.078;2022-10-01T07:51:51;17.90;;;3.53;;
20657;SDS011;10488;50.846;4.078;2022-10-01T07:54:18;15.55;;;2.65;;
20657;SDS011;10488;50.846;4.078;2022-10-01T07:56:49;18.55;;;3.92;;
20657;SDS011;10488;50.846;4.078;2022-10-01T07:59:22;12.00;;;3.08;;
20657;SDS011;10488;50.846;4.078;2022-10-01T08:01:49;14.07;;;2.95;;
20657;SDS011;10488;50.846;4.078;2022-10-01T08:04:20;15.15;;;3.30;;
20657;SDS011;10488;50.846;4.078;2022-10-01T08:07:05;16.02;;;2.92;;
20657;SDS011;10488;50.846;4.078;2022-10-01T08:09:32;14.40;;;2.40;;
20657;SDS011;10488;50.846;4.078;2022-10-01T08:11:58;20.55;;;3.55;;
20657;SDS011;10488;50.846;4.078;2022-10-01T08:14:25;13.50;;;3.70;;
20657;SDS011;10488;50.846;4.078;2022-10-01T08:16:53;17.95;;;3.22;;
20657;SDS011;10488;50.846;4.078;2022-10-01T08:19:20;24.58;;;4.13;;
20657;SDS011;10488;50.846;4.078;2022-10-01T08:21:46;15.93;;;3.55;;
20657;SDS011;10488;50.846;4.078;2022-10-01T08:24:11;19.80;;;4.78;;
20657;SDS011;10488;50.846;4.078;2022-10-01T08:26:38;18.30;;;3.80;;
20657;SDS011;10488;50.846;4.078;2022-10-01T08:29:03;23.55;;;4.68;;
20657;SDS011;10488;50.846;4.078;2022-10-01T08:31:30;15.50;;;3.97;;
20657;SDS011;10488;50.846;4.078;2022-10-01T08:33:56;17.75;;;3.60;;
20657;SDS011;10488;50.846;4.078;2022-10-01T08:36:22;19.52;;;4.90;;
20657;SDS011;10488;50.846;4.078;2022-10-01T08:38:48;21.35;;;5.18;;
20657;SDS011;10488;50.846;4.078;2022-10-01T08:41:23;26.70;;;4.95;;
20657;SDS011;10488;50.846;4.078;2022-10-01T08:43:54;25.95;;;4.70;;
20657;SDS011;10488;50.846;4.078;2022-10-01T08:46:23;13.55;;;4.53;;
20657;SDS011;10488;50.846;4.078;2022-10-01T08:48:57;15.75;;;5.03;;
20657;SDS011;10488;50.846;4.078;2022-10-01T08:51:37;20.92;;;4.32;;
20657;SDS011;10488;50.846;4.078;2022-10-01T08:54:31;16.60;;;4.70;;
20657;SDS011;10488;50.846;4.078;2022-10-01T08:57:01;18.10;;;4.40;;
20657;SDS011;10488;50.846;4.078;2022-10-01T08:59:32;11.95;;;4.05;;
20657;SDS011;10488;50.846;4.078;2022-10-01T09:04:56;16.83;;;4.50;;
20657;SDS011;10488;50.846;4.078;2022-10-01T09:20:56;17.75;;;4.63;;
20657;SDS011;10488;50.846;4.078;2022-10-01T09:25:48;16.48;;;5.15;;
20657;SDS011;10488;50.846;4.078;2022-10-01T09:28:28;17.13;;;5.60;;
20657;SDS011;10488;50.846;4.078;2022-10-01T09:33:55;13.15;;;5.22;;
20657;SDS011;10488;50.846;4.078;2022-10-01T09:39:00;12.93;;;4.38;;
20657;SDS011;10488;50.846;4.078;2022-10-01T09:41:44;22.73;;;5.45;;
20657;SDS011;10488;50.846;4.078;2022-10-01T09:44:18;17.10;;;4.78;;
20657;SDS011;10488;50.846;4.078;2022-10-01T09:46:51;19.52;;;4.95;;
20657;SDS011;10488;50.846;4.078;2022-10-01T09:52:31;22.80;;;5.32;;
20657;SDS011;10488;50.846;4.078;2022-10-01T09:55:02;18.27;;;5.20;;
20657;SDS011;10488;50.846;4.078;2022-10-01T10:00:31;19.95;;;5.55;;
20657;SDS011;10488;50.846;4.078;2022-10-01T10:02:58;18.95;;;5.15;;
20657;SDS011;10488;50.846;4.078;2022-10-01T10:05:25;11.93;;;5.18;;
20657;SDS011;10488;50.846;4.078;2022-10-01T10:08:09;18.23;;;4.80;;
20657;SDS011;10488;50.846;4.078;2022-10-01T10:16:17;13.98;;;4.38;;
20657;SDS011;10488;50.846;4.078;2022-10-01T10:18:50;12.18;;;4.43;;
20657;SDS011;10488;50.846;4.078;2022-10-01T10:21:27;19.02;;;5.68;;
20657;SDS011;10488;50.846;4.078;2022-10-01T10:23:56;15.30;;;4.57;;
20657;SDS011;10488;50.846;4.078;2022-10-01T10:28:52;24.75;;;5.18;;
20657;SDS011;10488;50.846;4.078;2022-10-01T10:31:24;11.35;;;3.75;;
20657;SDS011;10488;50.846;4.078;2022-10-01T10:36:31;14.82;;;4.05;;
20657;SDS011;10488;50.846;4.078;2022-10-01T10:38:59;16.98;;;2.97;;
20657;SDS011;10488;50.846;4.078;2022-10-01T10:41:26;13.15;;;2.83;;
20657;SDS011;10488;50.846;4.078;2022-10-01T10:43:54;10.05;;;3.03;;
20657;SDS011;10488;50.846;4.078;2022-10-01T10:46:28;12.05;;;2.28;;
20657;SDS011;10488;50.846;4.078;2022-10-01T10:49:04;12.13;;;2.53;;
20657;SDS011;10488;50.846;4.078;2022-10-01T10:51:50;9.20;;;2.38;;
20657;SDS011;10488;50.846;4.078;2022-10-01T10:56:56;14.55;;;2.35;;
20657;SDS011;10488;50.846;4.078;2022-10-01T10:59:24;7.28;;;2.28;;
20657;SDS011;10488;50.846;4.078;2022-10-01T11:01:49;13.65;;;3.08;;
20657;SDS011;10488;50.846;4.078;2022-10-01T11:04:22;9.95;;;2.47;;
20657;SDS011;10488;50.846;4.078;2022-10-01T11:07:00;13.57;;;2.60;;
20657;SDS011;10488;50.846;4.078;2022-10-01T11:09:29;14.55;;;2.97;;
20657;SDS011;10488;50.846;4.078;2022-10-01T11:12:12;14.88;;;2.45;;
20657;SDS011;10488;50.846;4.078;2022-10-01T11:15:20;10.77;;;2.50;;
20657;SDS011;10488;50.846;4.078;2022-10-01T11:29:02;18.08;;;3.15;;
20657;SDS011;10488;50.846;4.078;2022-10-01T11:39:34;11.05;;;2.28;;
20657;SDS011;10488;50.846;4.078;2022-10-01T11:42:10;10.32;;;1.90;;
20657;SDS011;10488;50.846;4.078;2022-10-01T11:44:44;9.00;;;2.00;;
20657;SDS011;10488;50.846;4.078;2022-10-01T11:47:36;11.82;;;2.70;;
20657;SDS011;10488;50.846;4.078;2022-10-01T11:50:14;14.35;;;2.97;;
20657;SDS011;10488;50.846;4.078;2022-10-01T11:57:59;11.30;;;2.35;;
20657;SDS011;10488;50.846;4.078;2022-10-01T12:01:06;15.57;;;2.45;;
20657;SDS011;10488;50.846;4.078;2022-10-01T12:03:44;12.25;;;2.33;;
20657;SDS011;10488;50.846;4.078;2022-10-01T12:06:24;12.57;;;2.10;;
20657;SDS011;10488;50.846;4.078;2022-10-01T12:08:56;12.70;;;2.20;;
20657;SDS011;10488;50.846;4.078;2022-10-01T12:11:36;14.77;;;2.80;;
20657;SDS011;10488;50.846;4.078;2022-10-01T12:14:09;14.32;;;2.05;;
20657;SDS011;10488;50.846;4.078;2022-10-01T12:17:03;8.90;;;1.75;;
20657;SDS011;10488;50.846;4.078;2022-10-01T12:19:37;12.98;;;3.80;;
20657;SDS011;10488;50.846;4.078;2022-10-01T12:22:27;16.75;;;2.63;;
20657;SDS011;10488;50.846;4.078;2022-10-01T12:24:57;12.23;;;2.47;;
20657;SDS011;10488;50.846;4.078;2022-10-01T12:27:34;14.35;;;2.65;;
20657;SDS011;10488;50.846;4.078;2022-10-01T12:32:50;13.40;;;2.00;;
20657;SDS011;10488;50.846;4.078;2022-10-01T12:38:06;9.95;;;2.00;;
20657;SDS011;10488;50.846;4.078;2022-10-01T12:54:03;11.38;;;1.95;;
20657;SDS011;10488;50.846;4.078;2022-10-01T12:56:38;9.43;;;2.45;;
20657;SDS011;10488;50.846;4.078;2022-10-01T13:08:01;13.82;;;2.50;;
20657;SDS011;10488;50.846;4.078;2022-10-01T13:10:55;14.77;;;2.70;;
20657;SDS011;10488;50.846;4.078;2022-10-01T13:13:32;12.10;;;2.00;;
20657;SDS011;10488;50.846;4.078;2022-10-01T13:16:09;7.20;;;2.17;;
20657;SDS011;10488;50.846;4.078;2022-10-01T13:24:06;12.38;;;3.35;;
20657;SDS011;10488;50.846;4.078;2022-10-01T13:26:50;9.63;;;2.00;;
20657;SDS011;10488;50.846;4.078;2022-10-01T13:32:35;12.68;;;2.03;;
20657;SDS011;10488;50.846;4.078;2022-10-01T13:35:28;8.15;;;2.00;;
20657;SDS011;10488;50.846;4.078;2022-10-01T13:37:56;10.98;;;2.25;;
20657;SDS011;10488;50.846;4.078;2022-10-01T13:40:32;9.73;;;1.98;;
20657;SDS011;10488;50.846;4.078;2022-10-01T13:45:47;11.52;;;1.98;;
20657;SDS011;10488;50.846;4.078;2022-10-01T13:48:25;12.23;;;2.58;;
20657;SDS011;10488;50.846;4.078;2022-10-01T13:53:29;5.82;;;1.50;;
20657;SDS011;10488;50.846;4.078;2022-10-01T13:55:57;6.28;;;1.25;;
20657;SDS011;10488;50.846;4.078;2022-10-01T14:00:59;4.93;;;1.83;;
20657;SDS011;10488;50.846;4.078;2022-10-01T14:05:58;5.15;;;1.27;;
20657;SDS011;10488;50.846;4.078;2022-10-01T14:08:30;11.77;;;1.90;;
20657;SDS011;10488;50.846;4.078;2022-10-01T14:14:10;10.32;;;1.95;;
20657;SDS011;10488;50.846;4.078;2022-10-01T14:17:01;11.48;;;1.85;;
20657;SDS011;10488;50.846;4.078;2022-10-01T14:19:27;7.68;;;1.30;;
20657;SDS011;10488;50.846;4.078;2022-10-01T14:26:55;10.00;;;1.63;;
20657;SDS011;10488;50.846;4.078;2022-10-01T14:29:44;7.90;;;1.77;;
20657;SDS011;10488;50.846;4.078;2022-10-01T14:35:24;20.35;;;7.75;;
20657;SDS011;10488;50.846;4.078;2022-10-01T14:37:55;8.73;;;1.65;;
20657;SDS011;10488;50.846;4.078;2022-10-01T14:40:34;10.38;;;2.00;;
20657;SDS011;10488;50.846;4.078;2022-10-01T14:46:16;9.35;;;1.77;;
20657;SDS011;10488;50.846;4.078;2022-10-01T14:48:37;8.65;;;1.33;;
20657;SDS011;10488;50.846;4.078;2022-10-01T14:51:05;8.25;;;1.92;;
20657;SDS011;10488;50.846;4.078;2022-10-01T14:53:46;6.70;;;1.65;;
20657;SDS011;10488;50.846;4.078;2022-10-01T14:56:12;6.80;;;1.95;;
20657;SDS011;10488;50.846;4.078;2022-10-01T15:01:18;9.95;;;2.15;;
20657;SDS011;10488;50.846;4.078;2022-10-01T15:03:47;5.80;;;2.33;;
20657;SDS011;10488;50.846;4.078;2022-10-01T15:06:14;9.82;;;2.65;;
20657;SDS011;10488;50.846;4.078;2022-10-01T15:08:43;10.60;;;2.40;;
20657;SDS011;10488;50.846;4.078;2022-10-01T15:17:11;9.45;;;2.03;;
20657;SDS011;10488;50.846;4.078;2022-10-01T15:19:45;9.48;;;2.05;;
20657;SDS011;10488;50.846;4.078;2022-10-01T15:22:16;7.10;;;2.05;;
20657;SDS011;10488;50.846;4.078;2022-10-01T15:24:46;9.82;;;1.75;;
20657;SDS011;10488;50.846;4.078;2022-10-01T15:27:13;7.97;;;2.80;;
20657;SDS011;10488;50.846;4.078;2022-10-01T15:29:42;11.40;;;2.33;;
20657;SDS011;10488;50.846;4.078;2022-10-01T15:32:13;10.85;;;2.58;;
20657;SDS011;10488;50.846;4.078;2022-10-01T15:34:43;9.75;;;1.88;;
20657;SDS011;10488;50.846;4.078;2022-10-01T15:37:24;9.93;;;2.80;;
20657;SDS011;10488;50.846;4.078;2022-10-01T15:39:58;10.20;;;2.47;;
20657;SDS011;10488;50.846;4.078;2022-10-01T15:47:46;8.35;;;2.55;;
20657;SDS011;10488;50.846;4.078;2022-10-01T15:50:26;12.80;;;2.47;;
20657;SDS011;10488;50.846;4.078;2022-10-01T15:53:09;10.20;;;2.83;;
20657;SDS011;10488;50.846;4.078;2022-10-01T15:55:46;13.48;;;2.30;;
20657;SDS011;10488;50.846;4.078;2022-10-01T15:58:22;16.10;;;3.00;;
20657;SDS011;10488;50.846;4.078;2022-10-01T16:01:04;15.13;;;2.80;;
20657;SDS011;10488;50.846;4.078;2022-10-01T16:03:36;14.07;;;3.00;;
20657;SDS011;10488;50.846;4.078;2022-10-01T16:06:33;8.68;;;2.58;;
20657;SDS011;10488;50.846;4.078;2022-10-01T16:11:51;11.07;;;2.63;;
20657;SDS011;10488;50.846;4.078;2022-10-01T16:19:47;12.48;;;2.25;;
20657;SDS011;10488;50.846;4.078;2022-10-01T16:22:21;12.48;;;2.65;;
20657;SDS011;10488;50.846;4.078;2022-10-01T16:24:57;14.38;;;2.63;;
20657;SDS011;10488;50.846;4.078;2022-10-01T16:27:28;9.45;;;3.00;;
20657;SDS011;10488;50.846;4.078;2022-10-01T16:30:18;14.82;;;3.53;;
20657;SDS011;10488;50.846;4.078;2022-10-01T16:32:44;9.45;;;2.80;;
20657;SDS011;10488;50.846;4.078;2022-10-01T16:37:39;13.88;;;4.35;;
20657;SDS011;10488;50.846;4.078;2022-10-01T16:40:05;10.10;;;2.72;;
20657;SDS011;10488;50.846;4.078;2022-10-01T16:42:31;13.63;;;3.03;;
20657;SDS011;10488;50.846;4.078;2022-10-01T16:45:00;13.20;;;2.40;;
20657;SDS011;10488;50.846;4.078;2022-10-01T16:47:27;12.15;;;2.78;;
20657;SDS011;10488;50.846;4.078;2022-10-01T16:49:53;12.07;;;3.10;;
20657;SDS011;10488;50.846;4.078;2022-10-01T16:52:19;11.70;;;2.67;;
20657;SDS011;10488;50.846;4.078;2022-10-01T16:54:45;9.88;;;2.15;;
20657;SDS011;10488;50.846;4.078;2022-10-01T16:57:12;9.75;;;3.20;;
20657;SDS011;10488;50.846;4.078;2022-10-01T16:59:39;11.45;;;3.40;;
20657;SDS011;10488;50.846;4.078;2022-10-01T17:02:08;11.70;;;3.22;;
20657;SDS011;10488;50.846;4.078;2022-10-01T17:04:38;10.98;;;2.42;;
20657;SDS011;10488;50.846;4.078;2022-10-01T17:07:04;13.80;;;3.35;;
20657;SDS011;10488;50.846;4.078;2022-10-01T17:09:29;13.15;;;3.63;;
20657;SDS011;10488;50.846;4.078;2022-10-01T17:11:55;11.30;;;3.53;;
20657;SDS011;10488;50.846;4.078;2022-10-01T17:14:22;11.32;;;3.13;;
20657;SDS011;10488;50.846;4.078;2022-10-01T17:16:47;14.65;;;3.10;;
20657;SDS011;10488;50.846;4.078;2022-10-01T17:19:14;11.43;;;2.28;;
20657;SDS011;10488;50.846;4.078;2022-10-01T17:21:42;7.68;;;2.10;;
20657;SDS011;10488;50.846;4.078;2022-10-01T17:24:07;12.13;;;2.45;;
20657;SDS011;10488;50.846;4.078;2022-10-01T17:26:40;10.27;;;2.17;;
20657;SDS011;10488;50.846;4.078;2022-10-01T17:29:07;13.18;;;2.63;;
20657;SDS011;10488;50.846;4.078;2022-10-01T17:31:34;13.88;;;2.33;;
20657;SDS011;10488;50.846;4.078;2022-10-01T17:34:00;16.52;;;2.70;;
20657;SDS011;10488;50.846;4.078;2022-10-01T17:36:27;14.27;;;2.85;;
20657;SDS011;10488;50.846;4.078;2022-10-01T17:38:53;12.27;;;2.55;;
20657;SDS011;10488;50.846;4.078;2022-10-01T17:41:19;12.85;;;2.55;;
20657;SDS011;10488;50.846;4.078;2022-10-01T17:43:44;15.90;;;2.90;;
20657;SDS011;10488;50.846;4.078;2022-10-01T17:46:10;14.20;;;3.25;;
20657;SDS011;10488;50.846;4.078;2022-10-01T17:48:35;8.98;;;2.20;;
20657;SDS011;10488;50.846;4.078;2022-10-01T17:51:02;11.23;;;2.50;;
20657;SDS011;10488;50.846;4.078;2022-10-01T17:53:33;11.02;;;2.35;;
20657;SDS011;10488;50.846;4.078;2022-10-01T17:56:08;16.23;;;4.28;;
20657;SDS011;10488;50.846;4.078;2022-10-01T17:58:38;10.88;;;4.10;;
20657;SDS011;10488;50.846;4.078;2022-10-01T18:01:08;11.45;;;3.45;;
20657;SDS011;10488;50.846;4.078;2022-10-01T18:03:36;13.27;;;3.45;;
20657;SDS011;10488;50.846;4.078;2022-10-01T18:06:02;14.57;;;3.88;;